»·PEaware :: N3610E KCRQ-KSAN

N3610E :: KCRQ-KSAN

FLIGHT INFORMATION

Flight Status: Arrived
Operator: Privately registered:
United States
More flights under this callsign
Pilot: John Chan (12173)
Aircraft: CESSNA 172 SKYHAWK
(C172)
More flights by this aircraft type
Origin: KCRQ McClellan-Palomar
United States
Destination: KSAN San Diego Intl-Lindbergh
United States
More flights between these airports :: More routes between these airports
Route: +MZB
File this flight plan on PilotEdge
Remarks: LOC 27
Altitude:
(Current/Filed)
3,000ft
Speed:
(Current/Filed)
100kts
Departed: 12-Aug-17 10:28 PM
Arrived: 12-Aug-17 11:10 PM
Distance/Time
Traveled:
24nm/0:42
Distance/Time
To Go:
Arrived

Flight Plot

Page will automatically refresh every two minutes.


Map Options




Map Legend


Flown Route
Filed Route
Departure Airport
Arrival Airport
Navaid (VOR, NDB)
Fix

Horizontal Profiles

Position Reports

Time Latitude Longitude Heading Altitude Ground
Speed
12-Aug-17 22:24 33.130053 -117.276875 167 313ft 0kts
12-Aug-17 22:25 33.130053 -117.276875 167 313ft 0kts
12-Aug-17 22:26 33.130053 -117.276875 167 313ft 0kts
12-Aug-17 22:27 33.130003 -117.276854 155 313ft 4kts
12-Aug-17 22:28 33.130225 -117.272647 116 304ft 0kts
12-Aug-17 22:29 33.130225 -117.272647 116 304ft 0kts
12-Aug-17 22:30 33.129365 -117.272826 255 303ft 0kts
12-Aug-17 22:31 33.127451 -117.289329 262 746ft 82kts
12-Aug-17 22:32 33.124963 -117.314756 261 1717ft 85kts
12-Aug-17 22:33 33.121369 -117.339411 246 2588ft 87kts
12-Aug-17 22:34 33.105785 -117.340961 156 3095ft 101kts
12-Aug-17 22:35 33.085516 -117.330451 161 3025ft 109kts
12-Aug-17 22:36 33.065366 -117.322943 166 3072ft 110kts
12-Aug-17 22:37 33.047187 -117.315089 159 3489ft 107kts
12-Aug-17 22:38 33.028339 -117.307651 164 3881ft 106kts
12-Aug-17 22:39 33.008723 -117.297878 162 3931ft 108kts
12-Aug-17 22:40 32.989247 -117.290083 160 3935ft 106kts
12-Aug-17 22:41 32.970068 -117.283752 165 3950ft 105kts
12-Aug-17 22:42 32.950805 -117.276873 166 3954ft 105kts
12-Aug-17 22:43 32.931468 -117.270252 167 3944ft 106kts
12-Aug-17 22:44 32.911779 -117.265510 169 3953ft 106kts
12-Aug-17 22:45 32.891809 -117.261809 171 3957ft 106kts
12-Aug-17 22:46 32.872665 -117.256129 161 3991ft 106kts
12-Aug-17 22:47 32.855135 -117.245101 129 3961ft 111kts
12-Aug-17 22:48 32.847677 -117.221273 107 4003ft 109kts
12-Aug-17 22:49 32.841715 -117.197397 112 4004ft 110kts
12-Aug-17 22:50 32.835555 -117.174331 106 4008ft 110kts
12-Aug-17 22:51 32.829746 -117.149820 113 4013ft 108kts
12-Aug-17 22:52 32.822429 -117.126224 108 4008ft 110kts
12-Aug-17 22:53 32.815382 -117.100989 106 3998ft 112kts
12-Aug-17 22:54 32.807754 -117.072143 113 4009ft 111kts
12-Aug-17 22:55 32.798299 -117.039117 113 4009ft 112kts
12-Aug-17 22:56 32.786905 -117.005015 112 4011ft 113kts
12-Aug-17 22:57 32.776344 -116.970471 107 4011ft 114kts
12-Aug-17 22:58 32.766733 -116.934677 109 4021ft 114kts
12-Aug-17 22:59 32.748304 -116.906838 162 4033ft 110kts
12-Aug-17 23:00 32.719534 -116.894445 160 4051ft 112kts
12-Aug-17 23:01 32.690179 -116.881377 167 4041ft 113kts
12-Aug-17 23:02 32.673543 -116.906443 253 4037ft 110kts
12-Aug-17 23:03 32.672103 -116.939472 293 4020ft 104kts
12-Aug-17 23:04 32.680653 -116.970090 285 3631ft 105kts
12-Aug-17 23:05 32.688011 -116.999754 288 3139ft 103kts
12-Aug-17 23:06 32.694515 -117.027065 280 2699ft 102kts
12-Aug-17 23:07 32.698621 -117.047698 285 2558ft 97kts
12-Aug-17 23:08 32.703244 -117.066989 288 2302ft 91kts
12-Aug-17 23:09 32.710381 -117.089746 285 1957ft 90kts
12-Aug-17 23:10 32.718361 -117.118411 277 1429ft 93kts
12-Aug-17 23:11 32.723433 -117.147638 285 852ft 92kts
12-Aug-17 23:12 32.729778 -117.173858 282 282ft 68kts
12-Aug-17 23:13 32.732912 -117.187988 261 16ft 11kts
12-Aug-17 23:14 32.732833 -117.190981 283 17ft 14kts
12-Aug-17 23:15 32.732916 -117.191941 263 17ft 0kts
12-Aug-17 23:16 32.732916 -117.191941 263 17ft 0kts

Navigation Log

Ident Type
1. KCRQ Airport
2. MZB Navaid
3. KSAN Airport